sensor_id;sensor_type;location;lat;lon;timestamp;temperature;humidity
46283;DHT22;32017;43.700;11.820;2022-11-20T00:02:15;7.10;99.90
46283;DHT22;32017;43.700;11.820;2022-11-20T00:04:35;7.10;99.90
46283;DHT22;32017;43.700;11.820;2022-11-20T00:06:55;7.10;99.90
46283;DHT22;32017;43.700;11.820;2022-11-20T00:09:15;7.10;99.90
46283;DHT22;32017;43.700;11.820;2022-11-20T00:11:35;7.10;99.90
46283;DHT22;32017;43.700;11.820;2022-11-20T00:13:57;7.10;99.90
46283;DHT22;32017;43.700;11.820;2022-11-20T00:16:20;7.10;99.90
46283;DHT22;32017;43.700;11.820;2022-11-20T00:18:40;7.10;99.90
46283;DHT22;32017;43.700;11.820;2022-11-20T00:21:14;7.10;99.90
46283;DHT22;32017;43.700;11.820;2022-11-20T00:23:34;7.10;99.90
46283;DHT22;32017;43.700;11.820;2022-11-20T00:25:55;7.10;99.90
46283;DHT22;32017;43.700;11.820;2022-11-20T00:28:15;7.10;99.90
46283;DHT22;32017;43.700;11.820;2022-11-20T00:30:34;7.10;99.90
46283;DHT22;32017;43.700;11.820;2022-11-20T00:32:56;7.10;99.90
46283;DHT22;32017;43.700;11.820;2022-11-20T00:35:17;7.10;99.90
46283;DHT22;32017;43.700;11.820;2022-11-20T00:37:37;7.10;99.90
46283;DHT22;32017;43.700;11.820;2022-11-20T00:39:57;7.10;99.90
46283;DHT22;32017;43.700;11.820;2022-11-20T00:42:17;7.10;99.90
46283;DHT22;32017;43.700;11.820;2022-11-20T00:44:37;7.10;99.90
46283;DHT22;32017;43.700;11.820;2022-11-20T00:46:56;7.10;99.90
46283;DHT22;32017;43.700;11.820;2022-11-20T00:49:16;7.10;99.90
46283;DHT22;32017;43.700;11.820;2022-11-20T00:51:36;7.10;99.90
46283;DHT22;32017;43.700;11.820;2022-11-20T00:53:57;7.10;99.90
46283;DHT22;32017;43.700;11.820;2022-11-20T00:56:18;7.20;99.90
46283;DHT22;32017;43.700;11.820;2022-11-20T00:58:40;7.20;99.90
46283;DHT22;32017;43.700;11.820;2022-11-20T01:03:34;7.00;99.90
46283;DHT22;32017;43.700;11.820;2022-11-20T01:05:54;7.10;99.90
46283;DHT22;32017;43.700;11.820;2022-11-20T01:08:13;7.00;99.90
46283;DHT22;32017;43.700;11.820;2022-11-20T01:10:33;7.00;99.90
46283;DHT22;32017;43.700;11.820;2022-11-20T01:12:53;7.00;99.90
46283;DHT22;32017;43.700;11.820;2022-11-20T01:15:33;7.00;99.90
46283;DHT22;32017;43.700;11.820;2022-11-20T01:17:53;7.00;99.90
46283;DHT22;32017;43.700;11.820;2022-11-20T01:20:13;7.00;99.90
46283;DHT22;32017;43.700;11.820;2022-11-20T01:22:33;7.00;99.90
46283;DHT22;32017;43.700;11.820;2022-11-20T01:24:53;7.10;99.90
46283;DHT22;32017;43.700;11.820;2022-11-20T01:27:13;7.00;99.90
46283;DHT22;32017;43.700;11.820;2022-11-20T01:29:33;7.00;99.90
46283;DHT22;32017;43.700;11.820;2022-11-20T01:31:53;7.10;99.90
46283;DHT22;32017;43.700;11.820;2022-11-20T01:34:16;6.90;99.90
46283;DHT22;32017;43.700;11.820;2022-11-20T01:36:36;6.90;99.90
46283;DHT22;32017;43.700;11.820;2022-11-20T01:39:00;6.90;99.90
46283;DHT22;32017;43.700;11.820;2022-11-20T01:41:21;6.90;99.90
46283;DHT22;32017;43.700;11.820;2022-11-20T01:44:01;6.80;99.90
46283;DHT22;32017;43.700;11.820;2022-11-20T01:46:22;6.80;99.90
46283;DHT22;32017;43.700;11.820;2022-11-20T01:48:57;6.70;99.90
46283;DHT22;32017;43.700;11.820;2022-11-20T01:54:02;6.70;99.90
46283;DHT22;32017;43.700;11.820;2022-11-20T01:56:22;6.80;99.90
46283;DHT22;32017;43.700;11.820;2022-11-20T01:58:48;6.90;99.90
46283;DHT22;32017;43.700;11.820;2022-11-20T02:01:09;6.90;99.90
46283;DHT22;32017;43.700;11.820;2022-11-20T02:03:29;6.90;99.90
46283;DHT22;32017;43.700;11.820;2022-11-20T02:08:26;6.90;99.90
46283;DHT22;32017;43.700;11.820;2022-11-20T02:10:47;6.90;99.90
46283;DHT22;32017;43.700;11.820;2022-11-20T02:13:08;6.80;99.90
46283;DHT22;32017;43.700;11.820;2022-11-20T02:15:46;6.80;99.90
46283;DHT22;32017;43.700;11.820;2022-11-20T02:18:06;6.80;99.90
46283;DHT22;32017;43.700;11.820;2022-11-20T02:20:27;6.70;99.90
46283;DHT22;32017;43.700;11.820;2022-11-20T02:22:54;6.70;99.90
46283;DHT22;32017;43.700;11.820;2022-11-20T02:25:16;6.80;99.90
46283;DHT22;32017;43.700;11.820;2022-11-20T02:27:35;6.70;99.90
46283;DHT22;32017;43.700;11.820;2022-11-20T02:30:04;6.70;99.90
46283;DHT22;32017;43.700;11.820;2022-11-20T02:32:29;6.60;99.90
46283;DHT22;32017;43.700;11.820;2022-11-20T02:34:49;6.60;99.90
46283;DHT22;32017;43.700;11.820;2022-11-20T02:37:10;6.60;99.90
46283;DHT22;32017;43.700;11.820;2022-11-20T02:39:30;6.60;99.90
46283;DHT22;32017;43.700;11.820;2022-11-20T02:41:49;6.60;99.90
46283;DHT22;32017;43.700;11.820;2022-11-20T02:44:12;6.60;99.90
46283;DHT22;32017;43.700;11.820;2022-11-20T02:46:33;6.50;99.90
46283;DHT22;32017;43.700;11.820;2022-11-20T02:48:52;6.60;99.90
46283;DHT22;32017;43.700;11.820;2022-11-20T02:51:12;6.60;99.90
46283;DHT22;32017;43.700;11.820;2022-11-20T02:53:32;6.60;99.90
46283;DHT22;32017;43.700;11.820;2022-11-20T02:55:53;6.60;99.90
46283;DHT22;32017;43.700;11.820;2022-11-20T02:58:13;6.60;99.90
46283;DHT22;32017;43.700;11.820;2022-11-20T03:00:33;6.60;99.90
46283;DHT22;32017;43.700;11.820;2022-11-20T03:02:52;6.70;99.90
46283;DHT22;32017;43.700;11.820;2022-11-20T03:05:12;6.70;99.90
46283;DHT22;32017;43.700;11.820;2022-11-20T03:07:32;6.70;99.90
46283;DHT22;32017;43.700;11.820;2022-11-20T03:09:52;6.70;99.90
46283;DHT22;32017;43.700;11.820;2022-11-20T03:12:11;6.70;99.90
46283;DHT22;32017;43.700;11.820;2022-11-20T03:14:32;6.70;99.90
46283;DHT22;32017;43.700;11.820;2022-11-20T03:16:52;6.70;99.90
46283;DHT22;32017;43.700;11.820;2022-11-20T03:19:12;6.70;99.90
46283;DHT22;32017;43.700;11.820;2022-11-20T03:21:36;6.70;99.90
46283;DHT22;32017;43.700;11.820;2022-11-20T03:23:55;6.70;99.90
46283;DHT22;32017;43.700;11.820;2022-11-20T03:26:21;6.70;99.90
46283;DHT22;32017;43.700;11.820;2022-11-20T03:28:42;6.70;99.90
46283;DHT22;32017;43.700;11.820;2022-11-20T03:31:10;6.70;99.90
46283;DHT22;32017;43.700;11.820;2022-11-20T03:33:30;6.70;99.90
46283;DHT22;32017;43.700;11.820;2022-11-20T03:35:50;6.70;99.90
46283;DHT22;32017;43.700;11.820;2022-11-20T03:38:09;6.60;99.90
46283;DHT22;32017;43.700;11.820;2022-11-20T03:40:29;6.70;99.90
46283;DHT22;32017;43.700;11.820;2022-11-20T03:42:49;6.70;99.90
46283;DHT22;32017;43.700;11.820;2022-11-20T03:45:09;6.70;99.90
46283;DHT22;32017;43.700;11.820;2022-11-20T03:47:28;6.70;99.90
46283;DHT22;32017;43.700;11.820;2022-11-20T03:49:48;6.70;99.90
46283;DHT22;32017;43.700;11.820;2022-11-20T03:52:08;6.60;99.90
46283;DHT22;32017;43.700;11.820;2022-11-20T03:54:28;6.60;99.90
46283;DHT22;32017;43.700;11.820;2022-11-20T03:56:47;6.70;99.90
46283;DHT22;32017;43.700;11.820;2022-11-20T03:59:10;6.60;99.90
46283;DHT22;32017;43.700;11.820;2022-11-20T04:01:35;6.60;99.90
46283;DHT22;32017;43.700;11.820;2022-11-20T04:03:57;6.60;99.90
46283;DHT22;32017;43.700;11.820;2022-11-20T04:06:20;6.60;99.90
46283;DHT22;32017;43.700;11.820;2022-11-20T04:08:41;6.60;99.90
46283;DHT22;32017;43.700;11.820;2022-11-20T04:11:25;6.60;99.90
46283;DHT22;32017;43.700;11.820;2022-11-20T04:13:48;6.60;99.90
46283;DHT22;32017;43.700;11.820;2022-11-20T04:16:09;6.60;99.90
46283;DHT22;32017;43.700;11.820;2022-11-20T04:18:29;6.60;99.90
46283;DHT22;32017;43.700;11.820;2022-11-20T04:20:49;6.60;99.90
46283;DHT22;32017;43.700;11.820;2022-11-20T04:23:08;6.70;99.90
46283;DHT22;32017;43.700;11.820;2022-11-20T04:25:28;6.60;99.90
46283;DHT22;32017;43.700;11.820;2022-11-20T04:27:48;6.60;99.90
46283;DHT22;32017;43.700;11.820;2022-11-20T04:30:08;6.60;99.90
46283;DHT22;32017;43.700;11.820;2022-11-20T04:32:28;6.60;99.90
46283;DHT22;32017;43.700;11.820;2022-11-20T04:34:48;6.60;99.90
46283;DHT22;32017;43.700;11.820;2022-11-20T04:37:07;6.60;99.90
46283;DHT22;32017;43.700;11.820;2022-11-20T04:39:27;6.60;99.90
46283;DHT22;32017;43.700;11.820;2022-11-20T04:41:47;6.60;99.90
46283;DHT22;32017;43.700;11.820;2022-11-20T04:44:06;6.70;99.90
46283;DHT22;32017;43.700;11.820;2022-11-20T04:46:27;6.70;99.90
46283;DHT22;32017;43.700;11.820;2022-11-20T04:48:47;6.70;99.90
46283;DHT22;32017;43.700;11.820;2022-11-20T04:51:07;6.60;99.90
46283;DHT22;32017;43.700;11.820;2022-11-20T04:53:27;6.60;99.90
46283;DHT22;32017;43.700;11.820;2022-11-20T04:55:47;6.60;99.90
46283;DHT22;32017;43.700;11.820;2022-11-20T04:58:07;6.60;99.90
46283;DHT22;32017;43.700;11.820;2022-11-20T05:00:27;6.50;99.90
46283;DHT22;32017;43.700;11.820;2022-11-20T05:02:47;6.60;99.90
46283;DHT22;32017;43.700;11.820;2022-11-20T05:05:08;6.60;99.90
46283;DHT22;32017;43.700;11.820;2022-11-20T05:07:28;6.50;99.90
46283;DHT22;32017;43.700;11.820;2022-11-20T05:09:48;6.60;99.90
46283;DHT22;32017;43.700;11.820;2022-11-20T05:12:08;6.60;99.90
46283;DHT22;32017;43.700;11.820;2022-11-20T05:14:28;6.70;99.90
46283;DHT22;32017;43.700;11.820;2022-11-20T05:16:49;6.70;99.90
46283;DHT22;32017;43.700;11.820;2022-11-20T05:19:09;6.80;99.90
46283;DHT22;32017;43.700;11.820;2022-11-20T05:21:30;6.70;99.90
46283;DHT22;32017;43.700;11.820;2022-11-20T05:23:51;6.70;99.90
46283;DHT22;32017;43.700;11.820;2022-11-20T05:26:17;6.70;99.90
46283;DHT22;32017;43.700;11.820;2022-11-20T05:28:37;6.60;99.90
46283;DHT22;32017;43.700;11.820;2022-11-20T05:31:05;6.70;99.90
46283;DHT22;32017;43.700;11.820;2022-11-20T05:33:25;6.80;99.90
46283;DHT22;32017;43.700;11.820;2022-11-20T05:35:45;6.80;99.90
46283;DHT22;32017;43.700;11.820;2022-11-20T05:38:05;6.80;99.90
46283;DHT22;32017;43.700;11.820;2022-11-20T05:40:25;6.80;99.90
46283;DHT22;32017;43.700;11.820;2022-11-20T05:42:44;6.90;99.90
46283;DHT22;32017;43.700;11.820;2022-11-20T05:45:04;6.90;99.90
46283;DHT22;32017;43.700;11.820;2022-11-20T05:47:26;6.90;99.90
46283;DHT22;32017;43.700;11.820;2022-11-20T05:49:45;7.00;99.90
46283;DHT22;32017;43.700;11.820;2022-11-20T05:52:05;7.00;99.90
46283;DHT22;32017;43.700;11.820;2022-11-20T05:54:25;7.00;99.90
46283;DHT22;32017;43.700;11.820;2022-11-20T05:56:44;6.90;99.90
46283;DHT22;32017;43.700;11.820;2022-11-20T05:59:04;6.90;99.90
46283;DHT22;32017;43.700;11.820;2022-11-20T06:01:25;6.90;99.90
46283;DHT22;32017;43.700;11.820;2022-11-20T06:03:45;6.90;99.90
46283;DHT22;32017;43.700;11.820;2022-11-20T06:06:06;7.00;99.90
46283;DHT22;32017;43.700;11.820;2022-11-20T06:08:27;7.00;99.90
46283;DHT22;32017;43.700;11.820;2022-11-20T06:10:47;7.00;99.90
46283;DHT22;32017;43.700;11.820;2022-11-20T06:13:07;7.00;99.90
46283;DHT22;32017;43.700;11.820;2022-11-20T06:15:27;7.00;99.90
46283;DHT22;32017;43.700;11.820;2022-11-20T06:17:47;7.10;99.90
46283;DHT22;32017;43.700;11.820;2022-11-20T06:20:10;7.10;99.90
46283;DHT22;32017;43.700;11.820;2022-11-20T06:22:32;7.20;99.90
46283;DHT22;32017;43.700;11.820;2022-11-20T06:24:52;7.20;99.90
46283;DHT22;32017;43.700;11.820;2022-11-20T06:27:12;7.30;99.90
46283;DHT22;32017;43.700;11.820;2022-11-20T06:29:31;7.20;99.90
46283;DHT22;32017;43.700;11.820;2022-11-20T06:31:53;7.20;99.90
46283;DHT22;32017;43.700;11.820;2022-11-20T06:34:13;7.30;99.90
46283;DHT22;32017;43.700;11.820;2022-11-20T06:36:33;7.40;99.90
46283;DHT22;32017;43.700;11.820;2022-11-20T06:38:53;7.30;99.90
46283;DHT22;32017;43.700;11.820;2022-11-20T06:41:18;7.30;99.90
46283;DHT22;32017;43.700;11.820;2022-11-20T06:43:39;7.40;99.90
46283;DHT22;32017;43.700;11.820;2022-11-20T06:45:59;7.30;99.90
46283;DHT22;32017;43.700;11.820;2022-11-20T06:48:18;7.20;99.90
46283;DHT22;32017;43.700;11.820;2022-11-20T06:50:38;7.10;99.90
46283;DHT22;32017;43.700;11.820;2022-11-20T06:53:01;7.10;99.90
46283;DHT22;32017;43.700;11.820;2022-11-20T06:55:22;7.00;99.90
46283;DHT22;32017;43.700;11.820;2022-11-20T06:57:41;7.00;99.90
46283;DHT22;32017;43.700;11.820;2022-11-20T07:00:01;7.00;99.90
46283;DHT22;32017;43.700;11.820;2022-11-20T07:02:21;7.10;99.90
46283;DHT22;32017;43.700;11.820;2022-11-20T07:04:40;7.10;99.90
46283;DHT22;32017;43.700;11.820;2022-11-20T07:07:01;7.30;99.90
46283;DHT22;32017;43.700;11.820;2022-11-20T07:09:21;7.30;99.90
46283;DHT22;32017;43.700;11.820;2022-11-20T07:11:41;7.30;99.90
46283;DHT22;32017;43.700;11.820;2022-11-20T07:14:01;7.20;99.90
46283;DHT22;32017;43.700;11.820;2022-11-20T07:16:21;7.20;99.90
46283;DHT22;32017;43.700;11.820;2022-11-20T07:18:40;7.20;99.90
46283;DHT22;32017;43.700;11.820;2022-11-20T07:21:08;7.20;99.90
46283;DHT22;32017;43.700;11.820;2022-11-20T07:23:28;7.20;99.90
46283;DHT22;32017;43.700;11.820;2022-11-20T07:25:48;7.30;99.90
46283;DHT22;32017;43.700;11.820;2022-11-20T07:28:08;7.30;99.90
46283;DHT22;32017;43.700;11.820;2022-11-20T07:30:30;7.30;99.90
46283;DHT22;32017;43.700;11.820;2022-11-20T07:32:54;7.30;99.90
46283;DHT22;32017;43.700;11.820;2022-11-20T07:35:14;7.30;99.90
46283;DHT22;32017;43.700;11.820;2022-11-20T07:37:34;7.40;99.90
46283;DHT22;32017;43.700;11.820;2022-11-20T07:39:54;7.40;99.90
46283;DHT22;32017;43.700;11.820;2022-11-20T07:42:14;7.40;99.90
46283;DHT22;32017;43.700;11.820;2022-11-20T07:44:34;7.70;99.90
46283;DHT22;32017;43.700;11.820;2022-11-20T07:46:54;7.90;99.90
46283;DHT22;32017;43.700;11.820;2022-11-20T07:49:13;8.00;99.90
46283;DHT22;32017;43.700;11.820;2022-11-20T07:51:33;8.10;99.90
46283;DHT22;32017;43.700;11.820;2022-11-20T07:53:53;8.20;99.90
46283;DHT22;32017;43.700;11.820;2022-11-20T07:56:13;8.20;99.90
46283;DHT22;32017;43.700;11.820;2022-11-20T07:58:33;8.00;99.90
46283;DHT22;32017;43.700;11.820;2022-11-20T08:00:53;7.90;99.90
46283;DHT22;32017;43.700;11.820;2022-11-20T08:03:13;7.80;99.90
46283;DHT22;32017;43.700;11.820;2022-11-20T08:05:34;7.90;99.90
46283;DHT22;32017;43.700;11.820;2022-11-20T08:07:54;7.90;99.90
46283;DHT22;32017;43.700;11.820;2022-11-20T08:10:15;8.10;99.90
46283;DHT22;32017;43.700;11.820;2022-11-20T08:12:52;8.20;99.90
46283;DHT22;32017;43.700;11.820;2022-11-20T08:15:30;8.20;99.90
46283;DHT22;32017;43.700;11.820;2022-11-20T08:17:51;8.40;99.90
46283;DHT22;32017;43.700;11.820;2022-11-20T08:20:31;8.40;99.90
46283;DHT22;32017;43.700;11.820;2022-11-20T08:22:51;8.60;99.90
46283;DHT22;32017;43.700;11.820;2022-11-20T08:25:10;8.70;99.90
46283;DHT22;32017;43.700;11.820;2022-11-20T08:27:31;8.70;99.90
46283;DHT22;32017;43.700;11.820;2022-11-20T08:29:52;8.80;99.90
46283;DHT22;32017;43.700;11.820;2022-11-20T08:32:12;9.00;99.90
46283;DHT22;32017;43.700;11.820;2022-11-20T08:34:32;9.10;99.90
46283;DHT22;32017;43.700;11.820;2022-11-20T08:36:52;9.00;99.90
46283;DHT22;32017;43.700;11.820;2022-11-20T08:39:12;9.20;99.90
46283;DHT22;32017;43.700;11.820;2022-11-20T08:41:32;9.40;99.90
46283;DHT22;32017;43.700;11.820;2022-11-20T08:43:55;9.50;99.90
46283;DHT22;32017;43.700;11.820;2022-11-20T08:46:15;9.60;99.90
46283;DHT22;32017;43.700;11.820;2022-11-20T08:48:35;9.50;99.90
46283;DHT22;32017;43.700;11.820;2022-11-20T08:50:58;9.40;99.90
46283;DHT22;32017;43.700;11.820;2022-11-20T08:53:18;9.40;99.90
46283;DHT22;32017;43.700;11.820;2022-11-20T08:55:38;9.40;99.90
46283;DHT22;32017;43.700;11.820;2022-11-20T08:58:03;9.50;99.90
46283;DHT22;32017;43.700;11.820;2022-11-20T09:00:23;9.50;99.90
46283;DHT22;32017;43.700;11.820;2022-11-20T09:02:43;9.50;99.90
46283;DHT22;32017;43.700;11.820;2022-11-20T09:05:04;9.60;99.90
46283;DHT22;32017;43.700;11.820;2022-11-20T09:07:24;9.60;99.90
46283;DHT22;32017;43.700;11.820;2022-11-20T09:09:44;9.60;99.90
46283;DHT22;32017;43.700;11.820;2022-11-20T09:12:05;9.70;99.90
46283;DHT22;32017;43.700;11.820;2022-11-20T09:14:25;9.60;99.90
46283;DHT22;32017;43.700;11.820;2022-11-20T09:16:48;9.60;99.90
46283;DHT22;32017;43.700;11.820;2022-11-20T09:19:08;9.70;99.90
46283;DHT22;32017;43.700;11.820;2022-11-20T09:21:48;9.80;99.90
46283;DHT22;32017;43.700;11.820;2022-11-20T09:24:08;9.90;99.90
46283;DHT22;32017;43.700;11.820;2022-11-20T09:26:28;9.80;99.90
46283;DHT22;32017;43.700;11.820;2022-11-20T09:28:47;9.80;99.90
46283;DHT22;32017;43.700;11.820;2022-11-20T09:31:09;9.90;99.90
46283;DHT22;32017;43.700;11.820;2022-11-20T09:33:29;9.80;99.90
46283;DHT22;32017;43.700;11.820;2022-11-20T09:35:49;9.90;99.90
46283;DHT22;32017;43.700;11.820;2022-11-20T09:38:11;10.00;99.90
46283;DHT22;32017;43.700;11.820;2022-11-20T09:40:35;10.10;99.90
46283;DHT22;32017;43.700;11.820;2022-11-20T09:43:03;10.30;99.90
46283;DHT22;32017;43.700;11.820;2022-11-20T09:51:03;10.20;99.90
46283;DHT22;32017;43.700;11.820;2022-11-20T09:56:10;10.30;99.90
46283;DHT22;32017;43.700;11.820;2022-11-20T09:58:35;10.20;99.90
46283;DHT22;32017;43.700;11.820;2022-11-20T10:01:15;10.20;99.90
46283;DHT22;32017;43.700;11.820;2022-11-20T10:06:07;10.30;99.90
46283;DHT22;32017;43.700;11.820;2022-11-20T10:08:53;10.30;99.90
46283;DHT22;32017;43.700;11.820;2022-11-20T10:11:44;10.70;99.90
46283;DHT22;32017;43.700;11.820;2022-11-20T10:16:59;10.70;99.90
46283;DHT22;32017;43.700;11.820;2022-11-20T10:24:55;10.70;99.90
46283;DHT22;32017;43.700;11.820;2022-11-20T10:27:37;10.80;99.90
46283;DHT22;32017;43.700;11.820;2022-11-20T10:30:00;10.90;99.90
46283;DHT22;32017;43.700;11.820;2022-11-20T10:32:24;10.90;99.90
46283;DHT22;32017;43.700;11.820;2022-11-20T10:34:58;10.80;99.90
46283;DHT22;32017;43.700;11.820;2022-11-20T10:37:24;10.70;99.90
46283;DHT22;32017;43.700;11.820;2022-11-20T10:42:51;10.70;99.90
46283;DHT22;32017;43.700;11.820;2022-11-20T10:45:40;10.80;99.90
46283;DHT22;32017;43.700;11.820;2022-11-20T10:50:27;10.70;99.90
46283;DHT22;32017;43.700;11.820;2022-11-20T10:52:57;10.70;99.90
46283;DHT22;32017;43.700;11.820;2022-11-20T10:55:45;10.70;99.90
46283;DHT22;32017;43.700;11.820;2022-11-20T11:00:51;11.00;99.90
46283;DHT22;32017;43.700;11.820;2022-11-20T11:03:37;10.90;99.90
46283;DHT22;32017;43.700;11.820;2022-11-20T11:08:39;11.30;99.90
46283;DHT22;32017;43.700;11.820;2022-11-20T11:11:07;11.20;99.90
46283;DHT22;32017;43.700;11.820;2022-11-20T11:13:32;11.30;99.90
46283;DHT22;32017;43.700;11.820;2022-11-20T11:15:53;11.60;99.90
46283;DHT22;32017;43.700;11.820;2022-11-20T11:18:27;11.70;99.90
46283;DHT22;32017;43.700;11.820;2022-11-20T11:20:51;11.70;99.90
46283;DHT22;32017;43.700;11.820;2022-11-20T11:25:57;11.90;99.90
46283;DHT22;32017;43.700;11.820;2022-11-20T11:30:42;11.90;99.90
46283;DHT22;32017;43.700;11.820;2022-11-20T11:33:09;12.20;99.90
46283;DHT22;32017;43.700;11.820;2022-11-20T11:35:29;12.30;99.90
46283;DHT22;32017;43.700;11.820;2022-11-20T11:37:50;12.30;99.90
46283;DHT22;32017;43.700;11.820;2022-11-20T11:40:11;12.20;99.90
46283;DHT22;32017;43.700;11.820;2022-11-20T11:42:54;12.00;99.90
46283;DHT22;32017;43.700;11.820;2022-11-20T11:45:15;11.80;99.90
46283;DHT22;32017;43.700;11.820;2022-11-20T11:52:29;11.50;99.90
46283;DHT22;32017;43.700;11.820;2022-11-20T11:54:57;11.60;99.90
46283;DHT22;32017;43.700;11.820;2022-11-20T12:02:31;11.70;99.90
46283;DHT22;32017;43.700;11.820;2022-11-20T12:05:08;11.50;99.90
46283;DHT22;32017;43.700;11.820;2022-11-20T12:10:21;11.30;99.90
46283;DHT22;32017;43.700;11.820;2022-11-20T12:12:51;11.40;99.90
46283;DHT22;32017;43.700;11.820;2022-11-20T12:15:16;11.40;99.90
46283;DHT22;32017;43.700;11.820;2022-11-20T12:17:39;11.40;99.90
46283;DHT22;32017;43.700;11.820;2022-11-20T12:20:00;11.70;99.90
46283;DHT22;32017;43.700;11.820;2022-11-20T12:22:41;11.70;99.90
46283;DHT22;32017;43.700;11.820;2022-11-20T12:25:12;11.80;99.90
46283;DHT22;32017;43.700;11.820;2022-11-20T12:30:21;11.80;99.90
46283;DHT22;32017;43.700;11.820;2022-11-20T12:43:31;11.40;99.90
46283;DHT22;32017;43.700;11.820;2022-11-20T12:46:37;11.20;99.90
46283;DHT22;32017;43.700;11.820;2022-11-20T12:54:30;11.00;99.90
46283;DHT22;32017;43.700;11.820;2022-11-20T13:05:06;10.90;99.90
46283;DHT22;32017;43.700;11.820;2022-11-20T13:07:32;10.90;99.90
46283;DHT22;32017;43.700;11.820;2022-11-20T13:09:53;10.70;99.90
46283;DHT22;32017;43.700;11.820;2022-11-20T13:12:23;10.90;99.90
46283;DHT22;32017;43.700;11.820;2022-11-20T13:17:34;10.80;99.90
46283;DHT22;32017;43.700;11.820;2022-11-20T13:19:56;10.80;99.90
46283;DHT22;32017;43.700;11.820;2022-11-20T13:22:29;10.80;99.90
46283;DHT22;32017;43.700;11.820;2022-11-20T13:24:53;10.70;99.90
46283;DHT22;32017;43.700;11.820;2022-11-20T13:29:34;10.80;99.90
46283;DHT22;32017;43.700;11.820;2022-11-20T13:34:27;10.80;99.90
46283;DHT22;32017;43.700;11.820;2022-11-20T13:36:56;10.90;99.90
46283;DHT22;32017;43.700;11.820;2022-11-20T13:41:54;10.90;99.90
46283;DHT22;32017;43.700;11.820;2022-11-20T13:45:08;11.00;99.90
46283;DHT22;32017;43.700;11.820;2022-11-20T13:47:25;11.00;99.90
46283;DHT22;32017;43.700;11.820;2022-11-20T13:49:45;11.00;99.90
46283;DHT22;32017;43.700;11.820;2022-11-20T13:55:04;11.00;99.90
46283;DHT22;32017;43.700;11.820;2022-11-20T14:00:10;10.70;99.90
46283;DHT22;32017;43.700;11.820;2022-11-20T14:02:31;10.60;99.90
46283;DHT22;32017;43.700;11.820;2022-11-20T14:04:54;10.60;99.90
46283;DHT22;32017;43.700;11.820;2022-11-20T14:07:18;10.60;99.90
46283;DHT22;32017;43.700;11.820;2022-11-20T14:09:38;10.60;99.90
46283;DHT22;32017;43.700;11.820;2022-11-20T14:11:58;10.50;99.90
46283;DHT22;32017;43.700;11.820;2022-11-20T14:14:21;10.60;99.90
46283;DHT22;32017;43.700;11.820;2022-11-20T14:16:41;10.60;99.90
46283;DHT22;32017;43.700;11.820;2022-11-20T14:19:24;10.60;99.90
46283;DHT22;32017;43.700;11.820;2022-11-20T14:21:46;10.60;99.90
46283;DHT22;32017;43.700;11.820;2022-11-20T14:24:09;10.50;99.90
46283;DHT22;32017;43.700;11.820;2022-11-20T14:26:30;10.50;99.90
46283;DHT22;32017;43.700;11.820;2022-11-20T14:28:51;10.40;99.90
46283;DHT22;32017;43.700;11.820;2022-11-20T14:31:21;10.40;99.90
46283;DHT22;32017;43.700;11.820;2022-11-20T14:33:42;10.30;99.90
46283;DHT22;32017;43.700;11.820;2022-11-20T14:36:01;10.30;99.90
46283;DHT22;32017;43.700;11.820;2022-11-20T14:38:27;10.30;99.90
46283;DHT22;32017;43.700;11.820;2022-11-20T14:40:47;10.20;99.90
46283;DHT22;32017;43.700;11.820;2022-11-20T14:45:40;10.10;99.90
46283;DHT22;32017;43.700;11.820;2022-11-20T14:47:59;10.20;99.90
46283;DHT22;32017;43.700;11.820;2022-11-20T14:50:25;10.20;99.90
46283;DHT22;32017;43.700;11.820;2022-11-20T14:53:00;10.20;99.90
46283;DHT22;32017;43.700;11.820;2022-11-20T14:55:37;10.20;99.90
46283;DHT22;32017;43.700;11.820;2022-11-20T14:58:21;10.20;99.90
46283;DHT22;32017;43.700;11.820;2022-11-20T15:00:39;10.20;99.90
46283;DHT22;32017;43.700;11.820;2022-11-20T15:02:59;10.20;99.90
46283;DHT22;32017;43.700;11.820;2022-11-20T15:05:22;10.10;99.90
46283;DHT22;32017;43.700;11.820;2022-11-20T15:07:48;10.00;99.90
46283;DHT22;32017;43.700;11.820;2022-11-20T15:10:11;9.90;99.90
46283;DHT22;32017;43.700;11.820;2022-11-20T15:12:33;9.80;99.90
46283;DHT22;32017;43.700;11.820;2022-11-20T15:14:54;9.70;99.90
46283;DHT22;32017;43.700;11.820;2022-11-20T15:17:14;9.50;99.90
46283;DHT22;32017;43.700;11.820;2022-11-20T15:19:35;9.50;99.90
46283;DHT22;32017;43.700;11.820;2022-11-20T15:21:55;9.40;99.90
46283;DHT22;32017;43.700;11.820;2022-11-20T15:24:15;9.40;99.90
46283;DHT22;32017;43.700;11.820;2022-11-20T15:26:36;9.30;99.90
46283;DHT22;32017;43.700;11.820;2022-11-20T15:28:58;9.20;99.90
46283;DHT22;32017;43.700;11.820;2022-11-20T15:31:21;9.10;99.90
46283;DHT22;32017;43.700;11.820;2022-11-20T15:33:41;9.00;99.90
46283;DHT22;32017;43.700;11.820;2022-11-20T15:36:02;8.90;99.90
46283;DHT22;32017;43.700;11.820;2022-11-20T15:38:22;8.80;99.90
46283;DHT22;32017;43.700;11.820;2022-11-20T15:40:43;8.80;99.90
46283;DHT22;32017;43.700;11.820;2022-11-20T15:43:03;8.70;99.90
46283;DHT22;32017;43.700;11.820;2022-11-20T15:48:01;8.60;99.90
46283;DHT22;32017;43.700;11.820;2022-11-20T15:50:24;8.50;99.90
46283;DHT22;32017;43.700;11.820;2022-11-20T15:52:47;8.50;99.90
46283;DHT22;32017;43.700;11.820;2022-11-20T15:55:09;8.40;99.90
46283;DHT22;32017;43.700;11.820;2022-11-20T15:57:29;8.40;99.90
46283;DHT22;32017;43.700;11.820;2022-11-20T15:59:49;8.40;99.90
46283;DHT22;32017;43.700;11.820;2022-11-20T16:02:11;8.40;99.90
46283;DHT22;32017;43.700;11.820;2022-11-20T16:04:38;8.30;99.90
46283;DHT22;32017;43.700;11.820;2022-11-20T16:06:58;8.30;99.90
46283;DHT22;32017;43.700;11.820;2022-11-20T16:09:18;8.10;99.90
46283;DHT22;32017;43.700;11.820;2022-11-20T16:11:38;8.10;99.90
46283;DHT22;32017;43.700;11.820;2022-11-20T16:13:58;8.00;99.90
46283;DHT22;32017;43.700;11.820;2022-11-20T16:16:37;7.90;99.90
46283;DHT22;32017;43.700;11.820;2022-11-20T16:18:57;7.70;99.90
46283;DHT22;32017;43.700;11.820;2022-11-20T16:21:18;7.60;99.90
46283;DHT22;32017;43.700;11.820;2022-11-20T16:23:37;7.70;99.90
46283;DHT22;32017;43.700;11.820;2022-11-20T16:25:57;7.60;99.90
46283;DHT22;32017;43.700;11.820;2022-11-20T16:28:18;7.40;99.90
46283;DHT22;32017;43.700;11.820;2022-11-20T16:30:39;7.30;99.90
46283;DHT22;32017;43.700;11.820;2022-11-20T16:33:00;7.30;99.90
46283;DHT22;32017;43.700;11.820;2022-11-20T16:35:20;7.30;99.90
46283;DHT22;32017;43.700;11.820;2022-11-20T16:37:40;7.30;99.90
46283;DHT22;32017;43.700;11.820;2022-11-20T16:40:01;7.50;99.90
46283;DHT22;32017;43.700;11.820;2022-11-20T16:42:21;7.70;99.90
46283;DHT22;32017;43.700;11.820;2022-11-20T16:44:41;7.80;99.90